»·PEaware :: FDX1014 KSEA-KOAK

FDX1014 :: KSEA-KOAK

FLIGHT INFORMATION

Flight Status: Arrived
Operator:
Federal Express
More flights by this operator :: More flights under this callsign
Pilot: Jim M. (18055)
Aircraft: BOEING 777-200
(B772)
More flights by this aircraft type
Origin: KSEA Seattle-Tacoma Intl
United States
Destination: KOAK Metro Oakland Intl
United States
More flights between these airports :: More routes between these airports
Route: HAROB6 HISKU Q5 HUPTU SPAMY WINDSR2
File this flight plan on PilotEdge
Remarks:
Altitude:
(Current/Filed)
35,000ft
Speed:
(Current/Filed)
450kts
Departed: 03-Mar-19 10:33 AM
Arrived: 03-Mar-19 12:11 PM
Distance/Time
Traveled:
584nm/1:38
Distance/Time
To Go:
Arrived

Flight Plot

Page will automatically refresh every two minutes.


Map Options




Map Legend


Flown Route
Filed Route
Departure Airport
Arrival Airport
Navaid (VOR, NDB)
Fix

Horizontal Profiles

Position Reports

Time Latitude Longitude Heading Altitude Ground
Speed
03-Mar-19 09:59 47.462451 -122.301687 0 446ft 0kts
03-Mar-19 10:00 47.462451 -122.301687 0 446ft 0kts
03-Mar-19 10:01 47.462451 -122.301687 0 446ft 0kts
03-Mar-19 10:02 47.462451 -122.301687 0 446ft 0kts
03-Mar-19 10:03 47.462451 -122.301687 0 446ft 0kts
03-Mar-19 10:04 47.462451 -122.301687 0 446ft 0kts
03-Mar-19 10:05 47.462451 -122.301687 0 446ft 0kts
03-Mar-19 10:06 47.462451 -122.301687 0 446ft 0kts
03-Mar-19 10:07 47.462451 -122.301687 0 446ft 0kts
03-Mar-19 10:08 47.462451 -122.301687 0 446ft 0kts
03-Mar-19 10:09 47.462451 -122.301687 0 446ft 0kts
03-Mar-19 10:10 47.462451 -122.301687 0 446ft 0kts
03-Mar-19 10:11 47.462451 -122.301687 0 446ft 0kts
03-Mar-19 10:12 47.462451 -122.301687 0 446ft 0kts
03-Mar-19 10:13 47.462451 -122.301687 0 446ft 0kts
03-Mar-19 10:14 47.462451 -122.301687 0 446ft 0kts
03-Mar-19 10:15 47.462451 -122.301687 0 446ft 0kts
03-Mar-19 10:16 47.462451 -122.301687 0 446ft 0kts
03-Mar-19 10:17 47.462451 -122.301687 0 446ft 0kts
03-Mar-19 10:18 47.462451 -122.301687 0 446ft 0kts
03-Mar-19 10:19 47.462451 -122.301687 0 446ft 0kts
03-Mar-19 10:20 47.462451 -122.301687 0 446ft 0kts
03-Mar-19 10:21 47.462451 -122.301687 0 446ft 0kts
03-Mar-19 10:22 47.462451 -122.301687 0 446ft 0kts
03-Mar-19 10:23 47.461881 -122.301423 310 446ft 2kts
03-Mar-19 10:24 47.461732 -122.300826 270 446ft 0kts
03-Mar-19 10:25 47.461732 -122.300826 270 446ft 0kts
03-Mar-19 10:26 47.461746 -122.301785 275 446ft 9kts
03-Mar-19 10:27 47.461807 -122.302612 271 446ft 0kts
03-Mar-19 10:28 47.462402 -122.305017 338 446ft 6kts
03-Mar-19 10:29 47.463567 -122.306019 292 446ft 0kts
03-Mar-19 10:30 47.463567 -122.306020 292 446ft 0kts
03-Mar-19 10:31 47.463698 -122.306951 265 446ft 5kts
03-Mar-19 10:32 47.452598 -122.307815 177 447ft 155kts
03-Mar-19 10:33 47.403107 -122.307867 176 4091ft 195kts
03-Mar-19 10:34 47.336895 -122.318979 209 6895ft 273kts
03-Mar-19 10:35 47.307433 -122.422741 264 9079ft 286kts
03-Mar-19 10:36 47.309618 -122.540304 275 12167ft 288kts
03-Mar-19 10:37 47.313271 -122.670125 274 15143ft 349kts
03-Mar-19 10:38 47.302494 -122.817856 257 18905ft 377kts
03-Mar-19 10:39 47.263417 -122.965925 251 22503ft 397kts
03-Mar-19 10:40 47.192839 -123.098074 225 25630ft 431kts
03-Mar-19 10:41 47.089024 -123.197125 204 28406ft 468kts
03-Mar-19 10:42 46.953459 -123.207376 181 30831ft 506kts
03-Mar-19 10:43 46.814032 -123.189770 180 33575ft 501kts
03-Mar-19 10:44 46.675226 -123.174104 180 35343ft 501kts
03-Mar-19 10:45 46.536405 -123.158807 180 35346ft 499kts
03-Mar-19 10:46 46.397817 -123.143688 180 35345ft 499kts
03-Mar-19 10:47 46.259652 -123.128699 180 35350ft 499kts
03-Mar-19 10:48 46.121188 -123.113755 180 35353ft 498kts
03-Mar-19 10:49 45.982688 -123.098883 180 35352ft 498kts
03-Mar-19 10:50 45.845176 -123.084190 180 35347ft 496kts
03-Mar-19 10:51 45.707273 -123.069526 180 35340ft 496kts
03-Mar-19 10:52 45.571237 -123.055134 180 35331ft 489kts
03-Mar-19 10:53 45.435411 -123.040834 180 35319ft 489kts
03-Mar-19 10:54 45.299738 -123.026626 180 35304ft 488kts
03-Mar-19 10:55 45.164361 -123.012500 180 35296ft 488kts
03-Mar-19 10:56 45.028925 -122.998442 180 35283ft 487kts
03-Mar-19 10:57 44.894024 -122.984509 180 35270ft 486kts
03-Mar-19 10:58 44.758817 -122.970558 180 35272ft 486kts
03-Mar-19 10:59 44.623855 -122.956768 180 35271ft 485kts
03-Mar-19 11:00 44.489428 -122.943221 181 35271ft 484kts
03-Mar-19 11:01 44.355234 -122.939151 184 35267ft 482kts
03-Mar-19 11:02 44.220663 -122.935531 183 35264ft 482kts
03-Mar-19 11:03 44.086837 -122.931484 183 35257ft 482kts
03-Mar-19 11:04 43.952630 -122.927403 184 35258ft 480kts
03-Mar-19 11:05 43.819160 -122.923353 184 35246ft 479kts
03-Mar-19 11:06 43.686087 -122.919346 184 35239ft 479kts
03-Mar-19 11:07 43.552872 -122.915338 184 35224ft 478kts
03-Mar-19 11:08 43.419719 -122.911356 184 35215ft 479kts
03-Mar-19 11:09 43.286598 -122.907393 184 35211ft 478kts
03-Mar-19 11:10 43.153429 -122.903446 184 35179ft 477kts
03-Mar-19 11:11 43.020895 -122.899534 184 35162ft 477kts
03-Mar-19 11:12 42.888107 -122.895635 184 35140ft 476kts
03-Mar-19 11:13 42.755807 -122.891757 184 35126ft 476kts
03-Mar-19 11:14 42.623088 -122.887890 184 35122ft 476kts
03-Mar-19 11:15 42.490944 -122.884073 184 35130ft 475kts
03-Mar-19 11:16 42.359055 -122.880301 184 35139ft 475kts
03-Mar-19 11:17 42.246764 -122.877074 185 35134ft 475kts
03-Mar-19 11:18 42.114673 -122.873310 185 35124ft 474kts
03-Mar-19 11:19 41.982846 -122.869546 185 35116ft 474kts
03-Mar-19 11:20 41.851164 -122.865823 185 35116ft 472kts
03-Mar-19 11:21 41.720002 -122.862129 185 35106ft 472kts
03-Mar-19 11:22 41.588307 -122.858421 185 35100ft 472kts
03-Mar-19 11:23 41.457202 -122.854764 185 35092ft 471kts
03-Mar-19 11:24 41.325982 -122.851227 184 35085ft 471kts
03-Mar-19 11:25 41.194460 -122.843200 183 35074ft 473kts
03-Mar-19 11:26 41.063337 -122.835179 183 35075ft 471kts
03-Mar-19 11:27 40.932572 -122.827370 183 35076ft 471kts
03-Mar-19 11:28 40.801389 -122.819579 183 35078ft 470kts
03-Mar-19 11:29 40.671028 -122.811891 183 35079ft 470kts
03-Mar-19 11:30 40.540252 -122.804212 183 35079ft 470kts
03-Mar-19 11:31 40.409603 -122.796571 183 35088ft 469kts
03-Mar-19 11:32 40.279099 -122.788968 183 35089ft 469kts
03-Mar-19 11:33 40.148872 -122.781408 183 35091ft 469kts
03-Mar-19 11:34 40.018651 -122.773878 183 35099ft 468kts
03-Mar-19 11:35 39.888711 -122.766390 183 35099ft 466kts
03-Mar-19 11:36 39.759259 -122.758940 184 34831ft 463kts
03-Mar-19 11:37 39.632149 -122.751687 183 32498ft 457kts
03-Mar-19 11:39 39.506255 -122.740826 174 30414ft 452kts
03-Mar-19 11:40 39.386826 -122.686537 163 26552ft 463kts
03-Mar-19 11:41 39.269975 -122.626349 164 25533ft 443kts
03-Mar-19 11:42 39.157692 -122.583305 180 25069ft 402kts
03-Mar-19 11:43 39.047079 -122.569362 180 23201ft 395kts
03-Mar-19 11:44 38.940070 -122.543756 174 21505ft 386kts
03-Mar-19 11:45 38.835874 -122.517102 175 19858ft 376kts
03-Mar-19 11:46 38.734715 -122.491911 174 18233ft 366kts
03-Mar-19 11:47 38.635434 -122.470117 178 16567ft 353kts
03-Mar-19 11:48 38.538887 -122.456757 178 15071ft 346kts
03-Mar-19 11:49 38.444383 -122.442492 177 13596ft 335kts
03-Mar-19 11:50 38.353375 -122.428709 177 12179ft 323kts
03-Mar-19 11:51 38.265694 -122.415450 176 10812ft 313kts
03-Mar-19 11:52 38.181134 -122.402495 175 9492ft 287kts
03-Mar-19 11:53 38.104890 -122.390829 174 8309ft 273kts
03-Mar-19 11:54 38.032147 -122.378510 166 7163ft 261kts
03-Mar-19 11:55 37.970421 -122.330871 145 6994ft 261kts
03-Mar-19 11:56 37.912588 -122.275184 145 6816ft 258kts
03-Mar-19 11:57 37.855278 -122.220685 146 5805ft 257kts
03-Mar-19 11:58 37.798980 -122.167271 145 5004ft 244kts
03-Mar-19 11:58 37.762227 -122.117930 131 4996ft 224kts
03-Mar-19 12:00 37.717823 -122.045146 131 4985ft 224kts
03-Mar-19 12:01 37.680004 -121.982000 128 4981ft 225kts
03-Mar-19 12:01 37.649828 -121.928564 128 4982ft 224kts
03-Mar-19 12:02 37.604227 -121.882272 174 4983ft 218kts
03-Mar-19 12:04 37.560257 -121.940446 243 4038ft 208kts
03-Mar-19 12:04 37.548377 -121.992888 286 3663ft 192kts
03-Mar-19 12:05 37.582743 -122.039660 311 2993ft 182kts
03-Mar-19 12:06 37.617948 -122.089186 307 2529ft 188kts
03-Mar-19 12:07 37.648392 -122.134706 307 1608ft 147kts
03-Mar-19 12:08 37.672408 -122.170673 307 916ft 137kts
03-Mar-19 12:09 37.697240 -122.208282 309 141ft 141kts
03-Mar-19 12:10 37.714310 -122.232840 348 19ft 10kts
03-Mar-19 12:11 37.715296 -122.232931 1 19ft 5kts
03-Mar-19 12:12 37.715132 -122.231263 127 19ft 14kts
03-Mar-19 12:13 37.712597 -122.227351 129 19ft 14kts
03-Mar-19 12:14 37.711198 -122.224465 64 19ft 14kts
03-Mar-19 12:15 37.713857 -122.221030 44 19ft 14kts
03-Mar-19 12:16 37.716173 -122.219462 327 19ft 6kts
03-Mar-19 12:17 37.717924 -122.219024 335 19ft 0kts
03-Mar-19 12:18 37.717925 -122.219024 335 19ft 0kts
03-Mar-19 12:19 37.717925 -122.219024 335 19ft 0kts

Navigation Log

Ident Type
Flight plan parsing failed, navigation log unavailable